Time;durP1;ratioP1;P1;durP2;ratioP2;P2;SDS_P1;SDS_P2;PMS_P1;PMS_P2;Temp;Humidity;BMP_temperature;BMP_pressure;BME280_temperature;BME280_humidity;BME280_pressure;Samples;Min_cycle;Max_cycle;Signal;HPM_P1;HPM_P2
2022/11/06 00:00:34;;;;;;;9.40;8.40;;;;;;;3.93;100.00;97480.00;4988043;28;20527;-61
2022/11/06 00:03:02;;;;;;;19.53;11.87;;;;;;;3.99;100.00;97479.47;5023944;28;20210;-63
2022/11/06 00:08:26;;;;;;;15.13;11.50;;;;;;;4.05;100.00;97476.28;5025093;28;20234;-62
2022/11/06 00:10:54;;;;;;;14.87;12.97;;;;;;;4.12;100.00;97477.41;4999601;28;20604;-60
2022/11/06 00:13:23;;;;;;;20.00;15.67;;;;;;;4.17;100.00;97479.63;5024200;28;20206;-60
2022/11/06 00:15:51;;;;;;;36.63;15.90;;;;;;;4.17;100.00;97477.84;4988656;28;20210;-62
2022/11/06 00:18:20;;;;;;;81.70;19.10;;;;;;;4.23;100.00;97475.66;5023199;28;20225;-61
2022/11/06 00:20:49;;;;;;;51.53;17.83;;;;;;;4.26;100.00;97470.94;5006075;28;20213;-62
2022/11/06 00:23:18;;;;;;;31.00;15.33;;;;;;;4.33;100.00;97476.47;5020391;28;20218;-61
2022/11/06 00:25:47;;;;;;;26.00;13.80;;;;;;;4.41;100.00;97478.41;5002844;28;20303;-62
2022/11/06 00:28:15;;;;;;;19.50;15.40;;;;;;;4.48;100.00;97482.16;5022944;28;20231;-63
2022/11/06 00:30:43;;;;;;;32.10;16.43;;;;;;;4.47;100.00;97489.16;4989331;28;20218;-63
2022/11/06 00:33:11;;;;;;;34.90;18.10;;;;;;;4.54;100.00;97494.72;5021356;28;21334;-60
2022/11/06 00:35:40;;;;;;;23.07;15.97;;;;;;;4.50;100.00;97495.94;5026596;28;20248;-61
2022/11/06 00:38:08;;;;;;;22.63;16.10;;;;;;;4.55;100.00;97490.31;5000938;28;20945;-62
2022/11/06 00:40:38;;;;;;;16.97;14.63;;;;;;;4.65;100.00;97488.50;5008408;28;20982;-61
2022/11/06 00:43:06;;;;;;;16.43;14.73;;;;;;;4.73;100.00;97485.16;5025641;28;20909;-61
2022/11/06 00:45:35;;;;;;;16.87;14.60;;;;;;;4.75;100.00;97486.69;5028557;28;20214;-61
2022/11/06 00:48:03;;;;;;;17.63;15.37;;;;;;;4.77;100.00;97482.13;4996920;28;20242;-61
2022/11/06 00:50:32;;;;;;;17.43;15.63;;;;;;;4.77;100.00;97486.56;5025863;28;20203;-58
2022/11/06 00:53:01;;;;;;;18.90;15.97;;;;;;;4.75;100.00;97485.88;4991473;28;20203;-59
2022/11/06 00:55:29;;;;;;;18.10;16.07;;;;;;;4.80;100.00;97499.41;5025285;28;21925;-56
2022/11/06 00:57:59;;;;;;;15.93;14.33;;;;;;;4.86;100.00;97496.22;4994621;28;20646;-59
2022/11/06 01:00:28;;;;;;;17.33;15.33;;;;;;;4.82;100.00;97484.34;5025936;28;20974;-61
2022/11/06 01:02:56;;;;;;;17.47;15.37;;;;;;;4.92;100.00;97485.16;4979890;28;20210;-60
2022/11/06 01:05:24;;;;;;;15.67;14.20;;;;;;;4.82;100.00;97483.50;5025944;28;20962;-60
2022/11/06 01:07:53;;;;;;;15.67;13.27;;;;;;;4.64;100.00;97477.16;5022502;28;20860;-60
2022/11/06 01:10:21;;;;;;;22.30;16.00;;;;;;;4.44;100.00;97465.03;4992789;28;20222;-59
2022/11/06 01:12:49;;;;;;;17.33;15.53;;;;;;;4.40;100.00;97474.13;5001631;28;20275;-61
2022/11/06 01:15:19;;;;;;;17.43;14.97;;;;;;;4.34;100.00;97473.69;5021872;28;21793;-57
2022/11/06 01:17:47;;;;;;;21.27;16.50;;;;;;;4.36;100.00;97476.19;4978660;28;20692;-59
2022/11/06 01:20:16;;;;;;;30.40;17.57;;;;;;;4.46;100.00;97482.28;5005607;28;20706;-58
2022/11/06 01:22:44;;;;;;;25.60;16.10;;;;;;;4.49;100.00;97478.56;4979601;28;20498;-61
2022/11/06 01:25:13;;;;;;;17.73;14.67;;;;;;;4.46;100.00;97473.59;5020532;28;20625;-63
2022/11/06 01:27:41;;;;;;;24.50;17.07;;;;;;;4.52;100.00;97473.03;4975493;28;21030;-59
2022/11/06 01:30:11;;;;;;;17.43;14.53;;;;;;;4.58;100.00;97475.09;4992614;28;20444;-63
2022/11/06 01:32:40;;;;;;;16.20;14.50;;;;;;;4.60;100.00;97473.16;4995410;28;20295;-59
2022/11/06 01:35:09;;;;;;;23.53;16.43;;;;;;;4.52;100.00;97473.03;5027771;28;20199;-55
2022/11/06 01:37:37;;;;;;;16.47;14.70;;;;;;;4.47;100.00;97475.25;4976485;28;20705;-61
2022/11/06 01:40:06;;;;;;;17.27;14.67;;;;;;;4.58;100.00;97475.09;5024032;28;20389;-59
2022/11/06 01:42:35;;;;;;;15.87;14.27;;;;;;;4.60;100.00;97469.72;5025458;28;20485;-61
2022/11/06 01:45:33;;;;;;;21.07;15.57;;;;;;;4.51;100.00;97465.28;5000930;28;20364;-61
2022/11/06 01:48:04;;;;;;;18.80;15.20;;;;;;;4.50;100.00;97469.72;4996877;28;20745;-60
2022/11/06 01:50:32;;;;;;;15.53;14.03;;;;;;;4.45;100.00;97467.50;5024911;28;20895;-60
2022/11/06 01:53:02;;;;;;;22.07;14.57;;;;;;;4.33;100.00;97461.53;4979065;28;20902;-60
2022/11/06 01:55:34;;;;;;;15.80;13.67;;;;;;;4.34;100.00;97462.38;5025561;28;20214;-62
2022/11/06 01:58:03;;;;;;;23.27;14.90;;;;;;;4.19;100.00;97459.34;5021178;28;20319;-62
2022/11/06 02:00:32;;;;;;;43.53;16.43;;;;;;;4.03;100.00;97459.88;4995316;28;20705;-60
2022/11/06 02:03:01;;;;;;;19.57;12.87;;;;;;;3.96;100.00;97467.44;4967325;28;20419;-60
2022/11/06 02:05:31;;;;;;;18.93;13.60;;;;;;;3.89;100.00;97463.69;4995159;28;20490;-60
2022/11/06 02:08:00;;;;;;;42.53;12.90;;;;;;;3.88;100.00;97457.66;4975335;28;20234;-61
2022/11/06 02:10:29;;;;;;;35.00;16.97;;;;;;;3.81;100.00;97450.44;5020368;28;20573;-61
2022/11/06 02:13:16;;;;;;;14.10;11.67;;;;;;;3.81;100.00;97450.44;4993055;28;20217;-58
2022/11/06 02:15:48;;;;;;;18.17;14.77;;;;;;;3.78;100.00;97453.34;4997923;28;21035;-61
2022/11/06 02:18:29;;;;;;;14.83;12.67;;;;;;;3.74;100.00;97452.75;4999161;28;20484;-63
2022/11/06 02:21:15;;;;;;;13.23;11.70;;;;;;;3.71;100.00;97458.28;5024975;28;21211;-60
2022/11/06 02:23:58;;;;;;;20.77;14.37;;;;;;;3.59;100.00;97457.53;4975961;28;20224;-62
2022/11/06 02:26:46;;;;;;;17.63;12.80;;;;;;;3.53;100.00;97463.31;4988360;28;20214;-63
2022/11/06 02:29:19;;;;;;;19.50;12.00;;;;;;;3.48;100.00;97461.13;5020831;28;20234;-62
2022/11/06 02:31:49;;;;;;;13.27;11.50;;;;;;;3.51;100.00;97463.47;4994839;28;20770;-60
2022/11/06 02:34:19;;;;;;;18.40;12.73;;;;;;;3.55;100.00;97453.53;4994892;28;20737;-61
2022/11/06 02:36:51;;;;;;;29.23;13.87;;;;;;;3.55;100.00;97457.00;5022419;28;20302;-65
2022/11/06 02:39:22;;;;;;;16.30;12.77;;;;;;;3.68;100.00;97463.78;4973039;28;20299;-64
2022/11/06 02:41:53;;;;;;;16.17;13.50;;;;;;;3.71;100.00;97468.75;5022350;28;20596;-65
2022/11/06 02:44:25;;;;;;;19.57;12.03;;;;;;;3.79;100.00;97455.84;4990683;28;20316;-66
2022/11/06 02:46:55;;;;;;;17.13;13.57;;;;;;;3.83;100.00;97456.38;4996969;28;20213;-60
2022/11/06 02:49:25;;;;;;;33.20;16.53;;;;;;;3.87;100.00;97463.00;4991863;28;20715;-64
2022/11/06 02:51:56;;;;;;;35.53;15.10;;;;;;;3.87;100.00;97458.63;5023807;28;20203;-63
2022/11/06 02:54:27;;;;;;;21.40;12.97;;;;;;;3.96;100.00;97461.38;4976861;28;20210;-66
2022/11/06 02:57:01;;;;;;;103.43;25.63;;;;;;;3.89;100.00;97463.69;5022459;28;20717;-62
2022/11/06 02:59:33;;;;;;;27.93;15.53;;;;;;;3.99;100.00;97461.94;4996789;28;21209;-64
2022/11/06 03:02:03;;;;;;;28.53;15.43;;;;;;;4.04;100.00;97461.53;4998407;28;20669;-62
2022/11/06 03:04:39;;;;;;;20.93;13.50;;;;;;;4.08;100.00;97455.03;4994923;28;22201;-63
2022/11/06 03:07:09;;;;;;;34.57;17.27;;;;;;;4.09;100.00;97456.69;5023311;28;20327;-66
2022/11/06 03:09:38;;;;;;;30.73;15.67;;;;;;;4.04;100.00;97464.16;4973683;28;20246;-64
2022/11/06 03:12:20;;;;;;;20.90;13.47;;;;;;;4.02;100.00;97459.06;5011534;28;20207;-60
2022/11/06 03:14:54;;;;;;;26.80;15.33;;;;;;;4.09;100.00;97453.25;5022833;28;20206;-65
2022/11/06 03:17:27;;;;;;;26.63;14.90;;;;;;;4.10;100.00;97449.66;4993192;28;20198;-64
2022/11/06 03:20:01;;;;;;;59.27;19.67;;;;;;;4.14;100.00;97456.31;4999251;28;20375;-66
2022/11/06 03:22:33;;;;;;;24.07;14.90;;;;;;;4.19;100.00;97454.09;5020545;28;20811;-64
2022/11/06 03:25:07;;;;;;;23.20;15.10;;;;;;;4.21;100.00;97454.78;4971689;28;20226;-64
2022/11/06 03:27:40;;;;;;;22.93;13.63;;;;;;;4.18;100.00;97449.81;5021149;28;20217;-64
2022/11/06 03:30:10;;;;;;;30.70;14.60;;;;;;;4.12;100.00;97445.13;4968243;28;20831;-65
2022/11/06 03:32:47;;;;;;;14.10;10.43;;;;;;;4.10;100.00;97450.50;4987920;28;20338;-63
2022/11/06 03:35:20;;;;;;;24.13;12.47;;;;;;;3.91;100.00;97448.66;4993007;28;20222;-64
2022/11/06 03:37:53;;;;;;;25.13;12.00;;;;;;;3.70;100.00;97446.13;5023460;28;20614;-62
2022/11/06 03:40:24;;;;;;;11.33;8.57;;;;;;;3.54;100.00;97451.88;4990065;28;20207;-66
2022/11/06 03:42:55;;;;;;;12.13;8.93;;;;;;;3.64;100.00;97450.13;5020715;28;20388;-64
2022/11/06 03:45:24;;;;;;;9.13;8.30;;;;;;;3.66;100.00;97450.00;4969306;28;20229;-64
2022/11/06 03:47:57;;;;;;;9.17;8.23;;;;;;;3.57;100.00;97449.00;5020495;28;20221;-64
2022/11/06 03:50:29;;;;;;;8.83;7.93;;;;;;;3.42;100.00;97444.13;5019947;28;20229;-65
2022/11/06 03:53:00;;;;;;;8.07;7.37;;;;;;;3.42;100.00;97440.69;5021855;28;20213;-64
2022/11/06 03:55:32;;;;;;;8.87;7.93;;;;;;;3.50;100.00;97443.47;4992475;28;20942;-61
2022/11/06 03:58:05;;;;;;;9.80;8.10;;;;;;;3.48;100.00;97440.97;5023243;28;20411;-64
2022/11/06 04:00:35;;;;;;;13.17;7.83;;;;;;;3.52;100.00;97440.69;4969198;28;21129;-59
2022/11/06 04:03:07;;;;;;;12.67;9.93;;;;;;;3.52;100.00;97431.06;5021021;28;20309;-63
2022/11/06 04:05:40;;;;;;;10.20;9.17;;;;;;;3.61;100.00;97432.88;5020542;28;20202;-64
2022/11/06 04:14:00;;;;;;;10.27;9.30;;;;;;;3.76;100.00;97438.56;5008323;28;22061;-63
2022/11/06 04:16:33;;;;;;;16.60;11.37;;;;;;;3.61;100.00;97425.03;4972407;28;21085;-60
2022/11/06 04:19:02;;;;;;;19.17;10.40;;;;;;;3.68;100.00;97432.34;5020657;28;20512;-63
2022/11/06 04:21:52;;;;;;;19.73;12.00;;;;;;;3.60;100.00;97428.59;5020159;28;20309;-66
2022/11/06 04:27:27;;;;;;;17.93;11.23;;;;;;;3.50;100.00;97427.75;4992882;28;21781;-63
2022/11/06 04:30:14;;;;;;;29.23;13.97;;;;;;;3.50;100.00;97424.28;5021194;28;20335;-66
2022/11/06 04:33:00;;;;;;;23.10;11.17;;;;;;;3.43;100.00;97411.72;4970585;28;21497;-65
2022/11/06 04:35:34;;;;;;;17.90;9.60;;;;;;;3.52;100.00;97419.75;5018575;28;20668;-63
2022/11/06 04:38:05;;;;;;;20.10;10.20;;;;;;;3.51;100.00;97416.31;5021675;28;20454;-65
2022/11/06 04:40:41;;;;;;;11.37;10.20;;;;;;;3.62;100.00;97407.53;5020323;28;20207;-65
2022/11/06 04:43:14;;;;;;;19.23;11.50;;;;;;;3.46;100.00;97410.66;4992166;28;20647;-66
2022/11/06 04:45:47;;;;;;;26.23;12.73;;;;;;;3.46;100.00;97395.75;5020714;28;20315;-65
2022/11/06 04:48:16;;;;;;;25.07;11.57;;;;;;;3.36;100.00;97404.53;4968731;28;21792;-65
2022/11/06 04:50:47;;;;;;;15.87;9.87;;;;;;;3.38;100.00;97394.75;5019853;28;20218;-65
2022/11/06 04:53:17;;;;;;;19.67;9.83;;;;;;;3.38;100.00;97389.50;4988375;28;21886;-66
2022/11/06 04:55:47;;;;;;;14.30;9.70;;;;;;;3.40;100.00;97393.66;5021886;28;20249;-66
2022/11/06 04:58:15;;;;;;;16.73;9.80;;;;;;;3.48;100.00;97387.75;4988967;28;20241;-62
2022/11/06 05:00:47;;;;;;;14.53;10.27;;;;;;;3.56;100.00;97393.16;5018691;28;20765;-59
2022/11/06 05:03:17;;;;;;;11.17;9.97;;;;;;;3.60;100.00;97388.47;4981732;28;20594;-62
2022/11/06 05:05:45;;;;;;;11.67;10.50;;;;;;;3.48;100.00;97387.75;5014113;28;20829;-65
2022/11/06 05:08:15;;;;;;;11.37;10.37;;;;;;;3.54;100.00;97389.84;5020042;28;20237;-65
2022/11/06 05:10:44;;;;;;;11.57;10.47;;;;;;;3.58;100.00;97385.97;5021603;28;20237;-64
2022/11/06 05:13:13;;;;;;;11.80;10.37;;;;;;;3.59;100.00;97377.16;5000583;28;20215;-63
2022/11/06 05:15:41;;;;;;;10.47;9.40;;;;;;;3.57;100.00;97380.88;5013176;28;20213;-63
2022/11/06 05:18:11;;;;;;;10.47;9.47;;;;;;;3.51;100.00;97378.78;5017906;28;20206;-64
2022/11/06 05:20:40;;;;;;;10.47;9.27;;;;;;;3.55;100.00;97377.56;4969560;28;20846;-64
2022/11/06 05:23:07;;;;;;;11.33;9.50;;;;;;;3.64;100.00;97370.69;5023216;28;20237;-65
2022/11/06 05:25:37;;;;;;;10.53;9.53;;;;;;;3.64;100.00;97368.91;5024139;28;20211;-62
2022/11/06 05:28:06;;;;;;;11.13;10.03;;;;;;;3.65;100.00;97370.56;5021943;28;20697;-62
2022/11/06 05:30:36;;;;;;;10.43;9.27;;;;;;;3.66;100.00;97376.63;4996994;28;20436;-61
2022/11/06 05:33:04;;;;;;;11.87;10.77;;;;;;;3.62;100.00;97384.75;5025285;28;20283;-63
2022/11/06 05:35:34;;;;;;;12.33;11.13;;;;;;;3.62;100.00;97374.28;4971498;28;25861;-61
2022/11/06 05:38:03;;;;;;;12.33;10.97;;;;;;;3.62;100.00;97378.69;4937671;28;20207;-62
2022/11/06 05:40:31;;;;;;;13.33;11.93;;;;;;;3.62;100.00;97376.06;5021024;28;20776;-61
2022/11/06 05:42:59;;;;;;;14.17;11.90;;;;;;;3.60;100.00;97375.38;4997422;28;21240;-62
2022/11/06 05:45:28;;;;;;;13.33;11.37;;;;;;;3.59;100.00;97384.19;5022177;28;21315;-61
2022/11/06 05:47:56;;;;;;;15.83;12.77;;;;;;;3.60;100.00;97373.56;5024558;28;20214;-60
2022/11/06 05:50:24;;;;;;;14.23;11.80;;;;;;;3.66;100.00;97374.00;5021882;28;20226;-61
2022/11/06 05:52:54;;;;;;;13.63;11.70;;;;;;;3.60;100.00;97373.56;4973045;28;20252;-59
2022/11/06 05:55:22;;;;;;;15.07;12.60;;;;;;;3.67;100.00;97391.38;4992529;28;21448;-60
2022/11/06 05:57:50;;;;;;;15.67;12.97;;;;;;;3.68;100.00;97387.78;5024720;28;20363;-61
2022/11/06 06:00:19;;;;;;;14.03;12.40;;;;;;;3.74;100.00;97384.63;4994474;28;20698;-59
2022/11/06 06:02:47;;;;;;;15.20;13.23;;;;;;;3.78;100.00;97388.63;5024714;28;20209;-63
2022/11/06 06:05:16;;;;;;;16.33;13.67;;;;;;;3.73;100.00;97381.19;5024213;28;20469;-60
2022/11/06 06:07:44;;;;;;;16.00;13.83;;;;;;;3.72;100.00;97384.78;5007562;28;20448;-62
2022/11/06 06:10:14;;;;;;;24.13;12.93;;;;;;;3.67;100.00;97384.34;4997118;28;20366;-61
2022/11/06 06:12:42;;;;;;;19.80;13.60;;;;;;;3.68;100.00;97382.53;5015842;28;21698;-61
2022/11/06 06:15:13;;;;;;;20.33;13.23;;;;;;;3.66;100.00;97384.47;4993533;28;20217;-60
2022/11/06 06:17:42;;;;;;;26.90;15.23;;;;;;;3.64;100.00;97384.63;5022182;28;20205;-62
2022/11/06 06:20:11;;;;;;;19.30;13.20;;;;;;;3.66;100.00;97381.84;5020321;28;20596;-61
2022/11/06 06:22:39;;;;;;;19.83;13.33;;;;;;;3.65;100.00;97388.91;5023728;28;20297;-58
2022/11/06 06:25:08;;;;;;;17.03;13.27;;;;;;;3.58;100.00;97398.25;4969364;28;20342;-60
2022/11/06 06:27:51;;;;;;;29.93;15.67;;;;;;;3.54;100.00;97389.84;5021217;28;20538;-62
2022/11/06 06:30:19;;;;;;;40.43;14.40;;;;;;;3.60;100.00;97389.31;4994742;28;20235;-61
2022/11/06 06:32:48;;;;;;;31.30;15.73;;;;;;;3.56;100.00;97390.53;5021719;28;20317;-60
2022/11/06 06:35:16;;;;;;;15.83;12.83;;;;;;;3.57;100.00;97370.38;5024237;28;20206;-63
2022/11/06 06:37:51;;;;;;;25.30;13.70;;;;;;;3.66;100.00;97374.84;5025002;28;20355;-63
2022/11/06 06:40:20;;;;;;;21.80;13.87;;;;;;;3.58;100.00;97370.25;4971727;28;20459;-60
2022/11/06 06:42:50;;;;;;;20.50;11.07;;;;;;;3.58;100.00;97374.66;5023261;28;20252;-59
2022/11/06 06:45:18;;;;;;;15.40;11.90;;;;;;;3.66;100.00;97376.63;4994987;28;20395;-60
2022/11/06 06:47:46;;;;;;;17.83;11.93;;;;;;;3.59;100.00;97387.66;5024823;28;20212;-60
2022/11/06 06:50:15;;;;;;;16.67;12.67;;;;;;;3.49;100.00;97384.19;5023797;28;21178;-62
2022/11/06 06:52:43;;;;;;;16.13;12.43;;;;;;;3.63;100.00;97380.34;4988862;28;21303;-63
2022/11/06 06:55:11;;;;;;;21.53;11.20;;;;;;;3.66;100.00;97380.06;4960784;28;21106;-61
2022/11/06 06:57:40;;;;;;;13.03;11.03;;;;;;;3.65;100.00;97374.97;4978452;28;20264;-61
2022/11/06 07:00:11;;;;;;;13.83;11.43;;;;;;;3.68;100.00;97378.16;4973661;28;20834;-60
2022/11/06 07:02:39;;;;;;;21.33;12.83;;;;;;;3.66;100.00;97374.84;5023812;28;20243;-60
2022/11/06 07:05:08;;;;;;;17.63;11.40;;;;;;;3.81;100.00;97371.81;4990303;28;20843;-60
2022/11/06 07:07:36;;;;;;;19.57;12.23;;;;;;;3.84;100.00;97372.38;5020065;28;20444;-60
2022/11/06 07:10:05;;;;;;;17.03;12.93;;;;;;;3.89;100.00;97383.28;5020593;28;20525;-61
2022/11/06 07:12:34;;;;;;;23.60;13.43;;;;;;;3.97;100.00;97382.56;4968907;28;20218;-61
2022/11/06 07:15:02;;;;;;;20.17;12.10;;;;;;;4.07;100.00;97382.59;4993241;28;20420;-60
2022/11/06 07:17:32;;;;;;;19.23;13.73;;;;;;;4.03;100.00;97379.44;5018350;28;20293;-60
2022/11/06 07:20:00;;;;;;;15.50;12.30;;;;;;;4.16;100.00;97383.56;4990190;28;20404;-61
2022/11/06 07:22:30;;;;;;;16.07;12.23;;;;;;;4.12;100.00;97388.25;4989504;28;20283;-63
2022/11/06 07:25:05;;;;;;;17.27;14.53;;;;;;;4.17;100.00;97385.22;5019461;28;20790;-64
2022/11/06 07:27:33;;;;;;;15.57;13.87;;;;;;;4.35;100.00;97377.47;4970715;28;20862;-63
2022/11/06 07:30:01;;;;;;;18.70;14.33;;;;;;;4.42;100.00;97377.75;4987303;28;20230;-61
2022/11/06 07:32:31;;;;;;;17.13;13.27;;;;;;;4.53;100.00;97380.22;4987289;28;20902;-60
2022/11/06 07:35:00;;;;;;;15.77;13.27;;;;;;;4.56;100.00;97384.38;4989817;28;20727;-63
2022/11/06 07:37:28;;;;;;;17.60;14.17;;;;;;;4.62;100.00;97379.34;5014704;28;20300;-63
2022/11/06 07:39:57;;;;;;;19.97;15.60;;;;;;;4.66;100.00;97374.66;4997571;28;20550;-63
2022/11/06 07:42:25;;;;;;;18.80;15.17;;;;;;;4.87;100.00;97381.50;5021396;28;20212;-63
2022/11/06 07:44:54;;;;;;;16.40;13.40;;;;;;;4.80;100.00;97391.75;4898802;28;21403;-62
2022/11/06 07:47:22;;;;;;;17.60;13.77;;;;;;;4.86;100.00;97395.59;5020487;28;20210;-63
2022/11/06 07:49:52;;;;;;;18.57;14.33;;;;;;;4.86;100.00;97399.06;4988467;28;20930;-63
2022/11/06 07:52:20;;;;;;;15.67;13.43;;;;;;;4.85;100.00;97400.03;4993145;28;20243;-63
2022/11/06 07:54:49;;;;;;;17.93;14.63;;;;;;;4.90;100.00;97408.31;5021795;28;20699;-64
2022/11/06 07:57:18;;;;;;;16.43;14.23;;;;;;;4.77;100.00;97423.56;4953399;28;20592;-64
2022/11/06 07:59:46;;;;;;;16.63;13.33;;;;;;;4.85;100.00;97423.66;4965533;28;20237;-61
2022/11/06 08:02:16;;;;;;;18.60;14.23;;;;;;;4.99;100.00;97427.66;4992815;28;20210;-65
2022/11/06 08:04:44;;;;;;;19.77;14.77;;;;;;;4.92;100.00;97416.03;5016830;28;20202;-64
2022/11/06 08:07:14;;;;;;;18.63;13.90;;;;;;;5.20;100.00;97432.69;4987684;28;20748;-66
2022/11/06 08:09:42;;;;;;;19.50;14.33;;;;;;;5.22;100.00;97422.88;5021526;28;20245;-64
2022/11/06 08:12:13;;;;;;;15.23;13.30;;;;;;;5.19;100.00;97417.91;5020341;28;20982;-63
2022/11/06 08:14:42;;;;;;;18.47;14.93;;;;;;;5.30;100.00;97405.56;4996688;28;20207;-63
2022/11/06 08:17:10;;;;;;;18.97;15.03;;;;;;;5.29;100.00;97394.19;5002522;28;20198;-60
2022/11/06 08:19:38;;;;;;;19.23;16.50;;;;;;;5.30;100.00;97388.00;5021507;28;20231;-62
2022/11/06 08:22:07;;;;;;;19.57;15.57;;;;;;;5.20;100.00;97388.03;4995606;28;22790;-60
2022/11/06 08:24:37;;;;;;;17.83;14.57;;;;;;;5.36;100.00;97391.81;5019474;28;20221;-64
2022/11/06 08:27:06;;;;;;;17.97;14.23;;;;;;;5.39;100.00;97386.28;5019616;28;20217;-61
2022/11/06 08:29:34;;;;;;;18.57;14.90;;;;;;;5.31;100.00;97379.16;5021501;28;20514;-61
2022/11/06 08:32:08;;;;;;;22.17;15.97;;;;;;;5.38;100.00;97373.31;4971091;28;20258;-62
2022/11/06 08:34:36;;;;;;;22.83;18.13;;;;;;;5.42;100.00;97369.41;5019401;28;20225;-62
2022/11/06 08:37:05;;;;;;;28.37;19.17;;;;;;;5.54;100.00;97349.81;4993493;28;20511;-63
2022/11/06 08:39:33;;;;;;;20.70;16.03;;;;;;;5.72;100.00;97357.72;5020270;28;20404;-62
2022/11/06 08:42:04;;;;;;;17.37;15.40;;;;;;;5.64;100.00;97355.03;5019035;28;21068;-62
2022/11/06 08:44:32;;;;;;;21.87;16.77;;;;;;;5.69;100.00;97357.22;5018876;28;20217;-63
2022/11/06 08:47:00;;;;;;;21.77;17.33;;;;;;;5.81;100.00;97356.03;4968378;28;20801;-62
2022/11/06 08:49:28;;;;;;;20.20;16.97;;;;;;;5.94;100.00;97355.66;5020499;28;20433;-63
2022/11/06 08:51:58;;;;;;;20.53;17.03;;;;;;;5.98;100.00;97358.78;5018281;28;20317;-62
2022/11/06 08:54:26;;;;;;;20.73;17.63;;;;;;;5.99;100.00;97345.50;4967112;28;20735;-62
2022/11/06 08:56:54;;;;;;;21.70;17.40;;;;;;;5.94;100.00;97337.25;5019700;28;20217;-61
2022/11/06 08:59:24;;;;;;;22.77;17.77;;;;;;;5.96;100.00;97340.53;5023236;28;20839;-62
2022/11/06 09:01:53;;;;;;;21.73;17.20;;;;;;;6.17;100.00;97334.16;4975039;28;21315;-62
2022/11/06 09:04:21;;;;;;;19.63;16.73;;;;;;;6.18;100.00;97328.75;5024057;28;20230;-62
2022/11/06 09:06:50;;;;;;;19.80;16.60;;;;;;;6.22;100.00;97324.84;5021829;28;20216;-62
2022/11/06 09:09:18;;;;;;;22.57;17.63;;;;;;;6.28;100.00;97319.94;5002434;28;20225;-63
2022/11/06 09:11:46;;;;;;;23.17;19.43;;;;;;;6.29;100.00;97311.06;5021777;28;20222;-65
2022/11/06 09:14:15;;;;;;;21.53;17.70;;;;;;;6.48;100.00;97313.50;4997161;28;20906;-63
2022/11/06 09:16:44;;;;;;;21.47;19.13;;;;;;;6.36;100.00;97306.84;5023946;28;20973;-61
2022/11/06 09:19:13;;;;;;;21.97;19.43;;;;;;;6.44;100.00;97308.69;4948893;28;20227;-60
2022/11/06 09:21:41;;;;;;;19.77;16.60;;;;;;;6.49;100.00;97307.28;5022545;28;20469;-62
2022/11/06 09:24:09;;;;;;;21.90;18.17;;;;;;;6.44;100.00;97306.91;4993966;28;20369;-64
2022/11/06 09:26:38;;;;;;;21.10;18.67;;;;;;;6.59;100.00;97288.72;4992237;28;20226;-62
2022/11/06 09:29:06;;;;;;;26.70;22.83;;;;;;;6.52;100.00;97279.78;5022347;28;20256;-64
2022/11/06 09:31:35;;;;;;;25.23;20.50;;;;;;;6.53;100.00;97273.53;5020001;28;20218;-64
2022/11/06 09:34:04;;;;;;;21.63;18.30;;;;;;;6.44;100.00;97282.38;4970441;28;20215;-63
2022/11/06 09:36:33;;;;;;;21.10;18.57;;;;;;;6.52;100.00;97274.53;4992672;28;20301;-63
2022/11/06 09:39:01;;;;;;;22.33;17.67;;;;;;;6.40;100.00;97283.69;5020210;28;20368;-63
2022/11/06 09:41:35;;;;;;;19.80;17.07;;;;;;;6.20;100.00;97281.22;4995523;28;20627;-64
2022/11/06 09:44:16;;;;;;;20.03;16.73;;;;;;;6.10;100.00;97285.75;5024252;28;20212;-64
2022/11/06 09:46:46;;;;;;;21.07;18.07;;;;;;;6.19;100.00;97282.22;4993768;28;20410;-63
2022/11/06 09:49:20;;;;;;;22.30;16.63;;;;;;;6.02;100.00;97282.09;4974471;28;20231;-64
2022/11/06 09:51:52;;;;;;;20.70;17.57;;;;;;;6.14;100.00;97279.22;4964894;28;20230;-64
2022/11/06 09:54:25;;;;;;;20.93;17.23;;;;;;;6.29;100.00;97275.06;5024845;28;20927;-64
2022/11/06 09:56:58;;;;;;;19.63;17.57;;;;;;;6.19;100.00;97276.94;5021498;28;20382;-65
2022/11/06 09:59:26;;;;;;;18.13;15.70;;;;;;;6.22;100.00;97271.38;5024406;28;20227;-64
2022/11/06 10:01:56;;;;;;;18.57;16.23;;;;;;;6.23;100.00;97267.75;5021536;28;20464;-63
2022/11/06 10:04:36;;;;;;;28.03;23.03;;;;;;;6.15;100.00;97260.66;5023970;28;20206;-64
2022/11/06 10:07:05;;;;;;;19.80;17.67;;;;;;;6.45;100.00;97255.91;4993390;28;20303;-65
2022/11/06 10:09:34;;;;;;;21.23;16.73;;;;;;;6.63;100.00;97255.00;5022755;28;20226;-64
2022/11/06 10:12:10;;;;;;;16.00;14.47;;;;;;;6.58;100.00;97247.56;5022225;28;20316;-63
2022/11/06 10:14:58;;;;;;;14.90;13.30;;;;;;;6.65;100.00;97240.72;4984936;28;20281;-64
2022/11/06 10:17:35;;;;;;;14.70;13.20;;;;;;;6.64;100.00;97233.81;5015738;28;20483;-64
2022/11/06 10:20:11;;;;;;;15.40;13.70;;;;;;;6.72;100.00;97225.09;4949658;28;21645;-65
2022/11/06 10:22:40;;;;;;;14.73;13.20;;;;;;;6.91;100.00;97224.00;5022136;28;20202;-64
2022/11/06 10:25:19;;;;;;;16.60;15.00;;;;;;;6.96;100.00;97213.00;5019801;28;20237;-65
2022/11/06 10:28:00;;;;;;;14.73;13.37;;;;;;;6.91;100.00;97212.66;5022704;28;20207;-64
2022/11/06 10:30:35;;;;;;;14.37;13.07;;;;;;;6.85;100.00;97213.31;5022677;28;20703;-64
2022/11/06 10:33:23;;;;;;;14.67;13.37;;;;;;;6.90;100.00;97208.38;5018416;28;20312;-65
2022/11/06 10:35:55;;;;;;;14.10;12.63;;;;;;;6.89;100.00;97209.38;4966023;28;20210;-60
2022/11/06 10:38:26;;;;;;;13.83;12.53;;;;;;;7.06;100.00;97197.88;4974208;28;20431;-64
2022/11/06 10:40:56;;;;;;;13.00;11.87;;;;;;;6.92;100.00;97195.88;5020511;28;21664;-65
2022/11/06 10:43:31;;;;;;;13.53;12.33;;;;;;;6.92;100.00;97187.97;4996946;28;20292;-65
2022/11/06 10:46:06;;;;;;;17.03;15.37;;;;;;;6.83;100.00;97188.94;5020487;28;20206;-65
2022/11/06 10:48:39;;;;;;;17.63;15.83;;;;;;;7.01;100.00;97183.53;5021180;28;20221;-63
2022/11/06 10:51:31;;;;;;;16.87;15.20;;;;;;;7.27;100.00;97177.31;5002030;28;20210;-60
2022/11/06 10:54:09;;;;;;;13.37;12.17;;;;;;;7.14;100.00;97177.78;5023410;28;20235;-62
2022/11/06 10:56:53;;;;;;;12.70;11.53;;;;;;;7.07;100.00;97172.38;5021856;28;20198;-65
2022/11/06 10:59:21;;;;;;;12.80;11.60;;;;;;;6.94;100.00;97157.03;5022402;28;20873;-65
2022/11/06 11:01:49;;;;;;;13.03;11.80;;;;;;;6.97;100.00;97161.97;5024129;28;20210;-62
2022/11/06 11:04:18;;;;;;;13.20;11.90;;;;;;;6.92;100.00;97151.09;5018150;28;20198;-65
2022/11/06 11:06:48;;;;;;;18.03;16.30;;;;;;;6.97;100.00;97151.44;4972555;28;20215;-64
2022/11/06 11:09:29;;;;;;;13.00;11.77;;;;;;;6.78;100.00;97140.19;5022129;28;20225;-65
2022/11/06 11:11:57;;;;;;;13.53;12.23;;;;;;;6.63;100.00;97140.00;4995574;28;20213;-63
2022/11/06 11:14:26;;;;;;;14.33;12.93;;;;;;;6.59;100.00;97132.56;5020718;28;20238;-65
2022/11/06 11:16:55;;;;;;;13.57;12.37;;;;;;;6.91;100.00;97117.84;5022066;28;20215;-66
2022/11/06 11:19:27;;;;;;;14.60;13.20;;;;;;;7.26;100.00;97110.63;5019282;28;20332;-64
2022/11/06 11:21:59;;;;;;;13.70;12.30;;;;;;;7.29;100.00;97104.19;5022004;28;20210;-63
2022/11/06 11:24:28;;;;;;;13.43;12.13;;;;;;;7.27;100.00;97106.16;4964158;28;20221;-64
2022/11/06 11:26:59;;;;;;;14.57;13.20;;;;;;;7.45;100.00;97104.19;5022203;28;20203;-64
2022/11/06 11:29:30;;;;;;;13.90;12.60;;;;;;;7.59;100.00;97100.06;5018357;28;20255;-64
2022/11/06 11:32:00;;;;;;;13.20;12.00;;;;;;;7.57;100.00;97085.38;5022898;28;20579;-63
2022/11/06 11:34:30;;;;;;;13.60;12.20;;;;;;;7.72;100.00;97073.16;5019301;28;20236;-64
2022/11/06 11:37:02;;;;;;;12.70;11.60;;;;;;;8.00;100.00;97075.38;5022396;28;20483;-63
2022/11/06 11:39:32;;;;;;;13.87;12.47;;;;;;;7.61;100.00;97069.06;4970874;28;20331;-64
2022/11/06 11:42:23;;;;;;;15.17;13.77;;;;;;;7.81;100.00;97071.31;5020043;28;20221;-64
2022/11/06 11:45:13;;;;;;;12.53;11.43;;;;;;;7.84;100.00;97063.06;5022166;28;20727;-65